createdAt,value
2022-11-10T00:00:23.055Z,56.60
2022-11-10T00:02:49.700Z,55.70
2022-11-10T00:05:16.243Z,57.40
2022-11-10T00:07:42.782Z,55.10
2022-11-10T00:10:10.632Z,55.10
2022-11-10T00:12:37.399Z,56.50
2022-11-10T00:15:04.483Z,62.90
2022-11-10T00:17:31.397Z,60.40
2022-11-10T00:19:57.927Z,58.40
2022-11-10T00:22:26.159Z,60.90
2022-11-10T00:24:52.811Z,61.00
2022-11-10T00:27:19.548Z,60.40
2022-11-10T00:29:46.145Z,57.50
2022-11-10T00:32:12.603Z,56.40
2022-11-10T00:34:39.326Z,53.10
2022-11-10T00:37:05.871Z,52.20
2022-11-10T00:39:32.354Z,52.80
2022-11-10T00:41:59.157Z,54.30
2022-11-10T00:44:25.793Z,53.20
2022-11-10T00:46:52.332Z,54.00
2022-11-10T00:49:18.871Z,53.60
2022-11-10T00:51:45.414Z,51.50
2022-11-10T00:54:12.141Z,53.30
2022-11-10T00:56:38.597Z,53.30
2022-11-10T00:59:05.235Z,51.60
2022-11-10T01:01:31.756Z,50.60
2022-11-10T01:03:58.317Z,50.40
2022-11-10T01:06:24.853Z,52.40
2022-11-10T01:08:51.607Z,50.60
2022-11-10T01:11:24.702Z,50.20
2022-11-10T01:13:52.924Z,47.70
2022-11-10T01:16:29.246Z,47.80
2022-11-10T01:18:58.760Z,49.20
2022-11-10T01:21:25.819Z,47.20
2022-11-10T01:23:52.767Z,49.00
2022-11-10T01:26:20.025Z,56.80
2022-11-10T01:28:47.473Z,62.20
2022-11-10T01:31:17.530Z,52.10
2022-11-10T01:33:44.259Z,52.20
2022-11-10T01:36:12.019Z,50.20
2022-11-10T01:38:40.651Z,49.90
2022-11-10T01:41:10.870Z,48.20
2022-11-10T01:43:38.201Z,48.90
2022-11-10T01:46:07.626Z,48.60
2022-11-10T01:48:44.694Z,50.30
2022-11-10T01:51:28.853Z,48.60
2022-11-10T01:54:01.486Z,50.10
2022-11-10T01:56:30.773Z,46.70
2022-11-10T01:59:08.842Z,46.00
2022-11-10T02:01:35.383Z,49.20
2022-11-10T02:04:06.409Z,48.10
2022-11-10T02:06:41.154Z,46.20
2022-11-10T02:09:07.962Z,44.90
2022-11-10T02:11:36.320Z,45.70
2022-11-10T02:14:03.395Z,46.40
2022-11-10T02:16:30.693Z,45.30
2022-11-10T02:18:57.347Z,46.10
2022-11-10T02:21:24.066Z,44.10
2022-11-10T02:23:52.628Z,43.20
2022-11-10T02:26:25.981Z,44.00
2022-11-10T02:28:52.515Z,39.90
2022-11-10T02:31:19.200Z,42.70
2022-11-10T02:33:45.694Z,39.80
2022-11-10T02:36:13.056Z,39.60
2022-11-10T02:38:40.428Z,40.50
2022-11-10T02:41:06.960Z,37.90
2022-11-10T02:43:34.335Z,37.50
2022-11-10T02:46:00.859Z,38.60
2022-11-10T02:48:27.400Z,38.10
2022-11-10T02:50:53.837Z,41.90
2022-11-10T02:53:20.707Z,40.90
2022-11-10T02:55:47.430Z,42.70
2022-11-10T02:58:13.967Z,42.50
2022-11-10T03:00:40.506Z,42.10
2022-11-10T03:03:07.059Z,37.40
2022-11-10T03:05:33.592Z,41.80
2022-11-10T03:08:02.512Z,42.60
2022-11-10T03:10:30.104Z,40.80
2022-11-10T03:12:58.871Z,39.40
2022-11-10T03:15:26.298Z,37.90
2022-11-10T03:17:53.047Z,38.30
2022-11-10T03:20:19.687Z,39.10
2022-11-10T03:22:46.843Z,39.60
2022-11-10T03:25:13.628Z,37.70
2022-11-10T03:27:40.104Z,37.60
2022-11-10T03:30:07.906Z,36.70
2022-11-10T03:32:34.552Z,39.70
2022-11-10T03:35:00.990Z,37.50
2022-11-10T03:37:27.397Z,37.60
2022-11-10T03:39:53.864Z,37.70
2022-11-10T03:42:20.404Z,37.90
2022-11-10T03:44:46.823Z,37.80
2022-11-10T03:47:13.292Z,38.20
2022-11-10T03:49:39.828Z,39.00
2022-11-10T03:52:06.364Z,37.20
2022-11-10T03:54:32.873Z,38.50
2022-11-10T03:56:59.467Z,36.90
2022-11-10T03:59:25.984Z,36.70
2022-11-10T04:01:52.665Z,36.40
2022-11-10T04:04:19.375Z,35.50
2022-11-10T04:06:45.913Z,36.30
2022-11-10T04:09:12.556Z,36.40
2022-11-10T04:11:38.996Z,37.10
2022-11-10T04:14:05.540Z,35.20
2022-11-10T04:16:32.061Z,35.60
2022-11-10T04:18:58.516Z,34.60
2022-11-10T04:21:24.950Z,35.40
2022-11-10T04:23:51.698Z,36.90
2022-11-10T04:26:18.242Z,39.70
2022-11-10T04:28:46.851Z,48.40
2022-11-10T04:31:14.242Z,52.20
2022-11-10T04:33:41.777Z,60.80
2022-11-10T04:36:09.744Z,44.40
2022-11-10T04:38:36.478Z,51.00
2022-11-10T04:41:03.835Z,56.30
2022-11-10T04:43:31.092Z,56.20
2022-11-10T04:45:58.604Z,50.80
2022-11-10T04:48:26.048Z,48.60
2022-11-10T04:50:52.662Z,46.90
2022-11-10T04:53:20.405Z,48.90
2022-11-10T04:55:47.383Z,46.50
2022-11-10T04:58:14.768Z,46.10
2022-11-10T05:00:42.228Z,45.40
2022-11-10T05:03:11.410Z,42.60
2022-11-10T05:05:38.264Z,42.60
2022-11-10T05:08:05.214Z,44.40
2022-11-10T05:10:32.264Z,45.30
2022-11-10T05:12:59.091Z,42.60
2022-11-10T05:15:25.789Z,40.90
2022-11-10T05:17:54.551Z,42.60
2022-11-10T05:20:22.729Z,42.20
2022-11-10T05:22:50.800Z,41.10
2022-11-10T05:25:17.343Z,39.60
2022-11-10T05:27:43.788Z,39.40
2022-11-10T05:30:10.772Z,39.70
2022-11-10T05:32:37.464Z,41.60
2022-11-10T05:35:04.325Z,44.40
2022-11-10T05:37:30.864Z,44.20
2022-11-10T05:39:57.406Z,41.80
2022-11-10T05:42:23.810Z,46.30
2022-11-10T05:44:50.393Z,49.00
2022-11-10T05:47:16.926Z,45.70
2022-11-10T05:49:43.476Z,43.70
2022-11-10T05:52:10.019Z,44.10
2022-11-10T05:54:36.558Z,44.20
2022-11-10T05:57:03.097Z,42.80
2022-11-10T05:59:29.569Z,44.00
2022-11-10T06:01:56.073Z,45.00
2022-11-10T06:04:22.718Z,45.30
2022-11-10T06:06:49.759Z,45.80
2022-11-10T06:09:16.307Z,45.20
2022-11-10T06:11:42.719Z,43.40
2022-11-10T06:14:09.189Z,46.20
2022-11-10T06:16:35.623Z,46.60
2022-11-10T06:19:02.164Z,45.40
2022-11-10T06:21:28.754Z,41.90
2022-11-10T06:23:55.339Z,47.30
2022-11-10T06:26:21.788Z,46.10
2022-11-10T06:28:48.327Z,43.60
2022-11-10T06:31:15.005Z,45.90
2022-11-10T06:33:41.511Z,47.70
2022-11-10T06:36:08.872Z,48.80
2022-11-10T06:38:35.312Z,51.30
2022-11-10T06:41:01.821Z,51.40
2022-11-10T06:43:28.291Z,49.80
2022-11-10T06:45:55.053Z,48.30
2022-11-10T06:48:21.573Z,47.30
2022-11-10T06:50:48.216Z,47.50
2022-11-10T06:53:14.655Z,44.90
2022-11-10T06:55:41.203Z,46.50
2022-11-10T06:58:08.761Z,45.80
2022-11-10T07:00:35.406Z,46.60
2022-11-10T07:03:04.434Z,45.10
2022-11-10T07:05:32.847Z,44.70
2022-11-10T07:08:16.123Z,47.80
2022-11-10T07:10:43.933Z,49.50
2022-11-10T07:13:11.349Z,48.60
2022-11-10T07:15:37.827Z,44.00
2022-11-10T07:18:05.157Z,45.00
2022-11-10T07:20:32.129Z,46.60
2022-11-10T07:23:03.969Z,46.90
2022-11-10T07:25:32.723Z,45.30
2022-11-10T07:28:01.249Z,44.30
2022-11-10T07:30:29.366Z,45.20
2022-11-10T07:33:40.370Z,44.10
2022-11-10T07:36:51.701Z,39.30
2022-11-10T07:39:24.357Z,41.00
2022-11-10T07:41:52.678Z,41.60
2022-11-10T07:44:19.511Z,42.90
2022-11-10T07:46:46.052Z,41.40
2022-11-10T07:49:12.558Z,41.50
2022-11-10T07:51:39.031Z,38.30
2022-11-10T07:54:05.571Z,42.50
2022-11-10T07:56:32.231Z,41.20
2022-11-10T07:58:58.858Z,40.00
2022-11-10T08:01:25.427Z,36.20
2022-11-10T08:03:51.937Z,34.70
2022-11-10T08:06:18.558Z,34.30
2022-11-10T08:08:48.235Z,33.20
2022-11-10T08:11:14.733Z,30.90
2022-11-10T08:13:41.368Z,31.10
2022-11-10T08:16:08.028Z,30.20
2022-11-10T08:18:35.735Z,30.50
2022-11-10T08:21:04.231Z,29.70
2022-11-10T08:23:30.767Z,30.30
2022-11-10T08:26:01.388Z,30.10
2022-11-10T08:28:28.594Z,30.00
2022-11-10T08:30:55.265Z,29.30
2022-11-10T08:33:22.656Z,29.90
2022-11-10T08:35:51.231Z,29.80
2022-11-10T08:38:26.557Z,35.10
2022-11-10T08:40:55.482Z,41.00
2022-11-10T08:43:22.137Z,51.90
2022-11-10T08:45:49.252Z,43.10
2022-11-10T08:48:19.184Z,36.90
2022-11-10T08:50:47.556Z,37.80
2022-11-10T08:53:16.148Z,33.30
2022-11-10T08:55:44.224Z,32.90
2022-11-10T08:58:16.393Z,30.30
2022-11-10T09:00:43.445Z,29.50
2022-11-10T09:03:20.317Z,30.60
2022-11-10T09:05:51.203Z,29.70
2022-11-10T09:08:20.170Z,31.00
2022-11-10T09:10:48.567Z,30.00
2022-11-10T09:13:16.354Z,32.00
2022-11-10T09:15:43.785Z,29.10
2022-11-10T09:18:12.401Z,28.10
2022-11-10T09:20:39.833Z,29.40
2022-11-10T09:23:09.094Z,29.00
2022-11-10T09:25:35.891Z,27.40
2022-11-10T09:28:03.041Z,29.80
2022-11-10T09:30:29.548Z,29.20
2022-11-10T09:32:59.324Z,28.30
2022-11-10T09:35:26.648Z,29.30
2022-11-10T09:37:53.187Z,27.90
2022-11-10T09:40:27.511Z,26.90
2022-11-10T09:42:56.309Z,26.90
2022-11-10T09:45:26.744Z,27.30
2022-11-10T09:48:03.011Z,26.70
2022-11-10T09:50:34.455Z,27.40
2022-11-10T09:53:02.874Z,27.60
2022-11-10T09:55:48.605Z,28.00
2022-11-10T09:58:16.115Z,29.60
2022-11-10T10:00:50.250Z,30.00
2022-11-10T10:03:22.521Z,33.00
2022-11-10T10:05:53.807Z,29.50
2022-11-10T10:11:40.069Z,31.40
2022-11-10T10:14:22.924Z,27.70
2022-11-10T10:17:00.995Z,27.30
2022-11-10T10:19:42.847Z,28.00
2022-11-10T10:22:28.947Z,28.60
2022-11-10T10:24:59.068Z,30.00
2022-11-10T10:27:26.988Z,28.20
2022-11-10T10:29:53.705Z,26.00
2022-11-10T10:32:20.683Z,24.70
2022-11-10T10:34:47.319Z,25.30
2022-11-10T10:37:43.623Z,23.90
2022-11-10T10:40:16.287Z,23.30
2022-11-10T10:42:42.778Z,23.10
2022-11-10T10:45:27.225Z,23.10
2022-11-10T10:47:56.584Z,25.80
2022-11-10T10:50:36.292Z,26.00
2022-11-10T10:53:18.200Z,26.40
2022-11-10T10:55:57.742Z,24.90
2022-11-10T10:58:47.222Z,25.70
2022-11-10T11:01:16.602Z,26.10
2022-11-10T11:03:45.831Z,26.40
2022-11-10T11:06:15.018Z,25.10
2022-11-10T11:08:59.906Z,24.20
2022-11-10T11:11:35.458Z,25.40
2022-11-10T11:14:26.216Z,26.10
2022-11-10T11:17:11.900Z,26.10
2022-11-10T11:19:40.028Z,24.30
2022-11-10T11:22:28.493Z,26.50
2022-11-10T11:25:08.954Z,25.30
2022-11-10T11:27:57.238Z,25.00
2022-11-10T11:30:27.617Z,21.90
2022-11-10T11:33:34.932Z,25.90
2022-11-10T11:36:14.639Z,23.30
2022-11-10T11:38:41.323Z,24.10
2022-11-10T11:41:13.917Z,24.50
2022-11-10T11:43:59.040Z,25.10
2022-11-10T11:46:43.566Z,24.80
2022-11-10T11:49:47.251Z,24.70
2022-11-10T11:52:35.499Z,45.50
2022-11-10T11:55:15.044Z,43.20
2022-11-10T11:58:01.040Z,30.60
2022-11-10T12:00:31.595Z,37.40
2022-11-10T12:03:18.260Z,33.30
2022-11-10T12:06:18.826Z,29.80
2022-11-10T12:09:13.017Z,31.50
2022-11-10T12:12:31.238Z,31.20
2022-11-10T12:15:26.219Z,33.10
2022-11-10T12:18:07.261Z,33.20
2022-11-10T12:20:36.767Z,34.20
2022-11-10T12:23:14.061Z,37.80
2022-11-10T12:25:54.951Z,39.70
2022-11-10T12:28:27.471Z,41.00
2022-11-10T12:31:02.083Z,41.10
2022-11-10T12:33:31.877Z,41.30
2022-11-10T12:36:02.655Z,42.40
2022-11-10T12:38:44.132Z,44.80
2022-11-10T12:41:21.355Z,40.60
2022-11-10T12:44:12.155Z,44.80
2022-11-10T12:46:45.978Z,93.60
2022-11-10T12:49:29.345Z,105.40
2022-11-10T12:52:10.962Z,60.20
2022-11-10T12:54:40.461Z,62.10
2022-11-10T12:57:26.246Z,52.60
2022-11-10T13:00:01.704Z,49.80
2022-11-10T13:02:42.365Z,52.20
2022-11-10T13:05:16.382Z,50.20
2022-11-10T13:07:49.392Z,56.00
2022-11-10T13:10:28.094Z,53.60
2022-11-10T13:13:12.774Z,55.10
2022-11-10T13:15:39.335Z,52.50
2022-11-10T13:18:22.033Z,54.10
2022-11-10T13:20:52.140Z,54.40
2022-11-10T13:23:22.900Z,56.60
2022-11-10T13:25:58.919Z,54.30
2022-11-10T13:28:47.508Z,57.00
2022-11-10T13:31:29.115Z,69.30
2022-11-10T13:34:05.802Z,66.70
2022-11-10T13:36:43.805Z,60.80
2022-11-10T13:39:19.332Z,58.80
2022-11-10T13:41:50.976Z,64.10
2022-11-10T13:44:41.702Z,63.00
2022-11-10T13:47:08.526Z,48.60
2022-11-10T13:50:04.582Z,62.00
2022-11-10T13:53:08.934Z,58.60
2022-11-10T13:56:03.541Z,65.70
2022-11-10T13:58:33.808Z,73.80
2022-11-10T14:01:18.887Z,122.70
2022-11-10T14:03:45.416Z,82.50
2022-11-10T14:06:20.618Z,81.60
2022-11-10T14:09:05.794Z,55.00
2022-11-10T14:11:40.423Z,72.90
2022-11-10T14:14:17.000Z,74.40
2022-11-10T14:16:44.159Z,95.40
2022-11-10T14:19:37.518Z,70.70
2022-11-10T14:22:30.279Z,74.30
2022-11-10T14:25:11.144Z,51.90
2022-11-10T14:27:38.608Z,64.80
2022-11-10T14:30:22.030Z,58.90
2022-11-10T14:32:57.751Z,62.60
2022-11-10T14:35:28.201Z,58.30
2022-11-10T14:37:59.806Z,60.80
2022-11-10T14:40:27.777Z,57.70
2022-11-10T14:42:55.379Z,57.40
2022-11-10T14:45:27.746Z,54.70
2022-11-10T14:47:56.368Z,52.40
2022-11-10T14:50:28.819Z,51.10
2022-11-10T14:53:02.136Z,60.70
2022-11-10T14:55:32.014Z,71.30
2022-11-10T14:58:07.563Z,65.50
2022-11-10T15:00:38.132Z,58.40
2022-11-10T15:03:06.857Z,66.10
2022-11-10T15:05:34.207Z,62.60
2022-11-10T15:08:03.049Z,59.50
2022-11-10T15:10:40.852Z,62.50
2022-11-10T15:13:13.452Z,65.40
2022-11-10T15:15:43.358Z,68.40
2022-11-10T15:18:30.736Z,72.80
2022-11-10T15:21:05.478Z,89.70
2022-11-10T15:23:40.555Z,102.10
2022-11-10T15:26:20.511Z,90.30
2022-11-10T15:28:47.669Z,88.10
2022-11-10T15:31:25.675Z,70.10
2022-11-10T15:33:58.051Z,72.40
2022-11-10T15:36:24.432Z,72.00
2022-11-10T15:39:12.960Z,84.30
2022-11-10T15:41:44.984Z,74.50
2022-11-10T15:44:22.912Z,83.00
2022-11-10T15:46:53.678Z,87.70
2022-11-10T15:49:24.997Z,57.60
2022-11-10T15:54:24.454Z,83.20
2022-11-10T15:56:51.125Z,131.20
2022-11-10T15:59:17.626Z,151.60
2022-11-10T16:01:44.164Z,101.60
2022-11-10T16:04:12.039Z,96.20
2022-11-10T16:06:39.914Z,89.40
2022-11-10T16:09:07.485Z,117.00
2022-11-10T16:11:35.085Z,95.20
2022-11-10T16:14:03.154Z,82.10
2022-11-10T16:16:30.912Z,94.50
2022-11-10T16:18:57.777Z,123.70
2022-11-10T16:21:25.889Z,111.80
2022-11-10T16:23:53.685Z,108.00
2022-11-10T16:26:23.552Z,104.30
2022-11-10T16:28:50.657Z,108.00
2022-11-10T16:31:21.489Z,119.50
2022-11-10T16:33:49.165Z,171.70
2022-11-10T16:36:24.137Z,160.10
2022-11-10T16:38:51.150Z,133.60
2022-11-10T16:41:17.587Z,143.70
2022-11-10T16:43:44.128Z,131.20
2022-11-10T16:46:37.344Z,164.80
2022-11-10T16:49:06.599Z,191.00
2022-11-10T16:51:45.629Z,127.00
2022-11-10T16:54:15.140Z,103.10
2022-11-10T16:56:41.676Z,115.80
2022-11-10T16:59:08.215Z,108.00
2022-11-10T17:01:36.697Z,98.90
2022-11-10T17:04:11.546Z,105.70
2022-11-10T17:06:38.214Z,128.90
2022-11-10T17:09:13.169Z,128.10
2022-11-10T17:11:39.598Z,145.10
2022-11-10T17:14:06.100Z,141.70
2022-11-10T17:16:36.580Z,143.20
2022-11-10T17:19:05.426Z,98.80
2022-11-10T17:21:35.755Z,130.50
2022-11-10T17:24:03.114Z,225.00
2022-11-10T17:26:30.369Z,274.40
2022-11-10T17:28:57.117Z,226.00
2022-11-10T17:31:23.776Z,174.50
2022-11-10T17:33:50.301Z,174.70
2022-11-10T17:36:22.987Z,158.40
2022-11-10T17:38:51.230Z,141.10
2022-11-10T17:41:19.730Z,142.80
2022-11-10T17:43:46.594Z,126.80
2022-11-10T17:46:16.306Z,123.90
2022-11-10T17:48:43.466Z,118.00
2022-11-10T17:51:17.067Z,119.90
2022-11-10T17:53:43.749Z,117.60
2022-11-10T17:56:10.357Z,108.90
2022-11-10T17:58:36.890Z,111.50
2022-11-10T18:01:11.029Z,119.40
2022-11-10T18:03:37.531Z,136.00
2022-11-10T18:06:06.466Z,119.50
2022-11-10T18:08:32.979Z,107.20
2022-11-10T18:11:01.057Z,107.10
2022-11-10T18:13:27.592Z,108.90
2022-11-10T18:15:57.929Z,119.40
2022-11-10T18:18:24.410Z,117.60
2022-11-10T18:20:52.534Z,123.90
2022-11-10T18:23:19.070Z,108.20
2022-11-10T18:25:45.611Z,105.30
2022-11-10T18:28:14.195Z,109.40
2022-11-10T18:30:41.212Z,100.40
2022-11-10T18:33:07.787Z,110.30
2022-11-10T18:35:36.763Z,109.20
2022-11-10T18:38:03.530Z,118.50
2022-11-10T18:40:30.068Z,126.00
2022-11-10T18:42:57.536Z,121.70
2022-11-10T18:45:25.296Z,120.60
2022-11-10T18:47:52.556Z,138.10
2022-11-10T18:50:19.841Z,177.90
2022-11-10T18:52:46.558Z,166.60
2022-11-10T18:55:13.099Z,173.90
2022-11-10T18:57:39.535Z,160.20
2022-11-10T19:00:06.972Z,142.40
2022-11-10T19:02:33.531Z,150.20
2022-11-10T19:05:00.274Z,142.70
2022-11-10T19:07:26.814Z,139.50
2022-11-10T19:09:53.355Z,155.50
2022-11-10T19:12:25.416Z,144.30
2022-11-10T19:14:53.196Z,139.30
2022-11-10T19:17:19.666Z,138.60
2022-11-10T19:19:46.170Z,209.90
2022-11-10T19:22:12.629Z,184.10
2022-11-10T19:25:00.957Z,184.60
2022-11-10T19:27:25.763Z,189.70
2022-11-10T19:29:52.321Z,173.10
2022-11-10T19:32:24.526Z,174.10
2022-11-10T19:34:51.418Z,166.60
2022-11-10T19:37:18.062Z,167.20
2022-11-10T19:39:44.628Z,164.80
2022-11-10T19:42:11.145Z,167.30
2022-11-10T19:44:37.704Z,165.30
2022-11-10T19:47:04.331Z,172.90
2022-11-10T19:49:30.773Z,173.20
2022-11-10T19:51:57.263Z,173.40
2022-11-10T19:54:23.846Z,170.20
2022-11-10T19:56:50.302Z,172.30
2022-11-10T19:59:16.930Z,173.50
2022-11-10T20:01:43.507Z,176.80
2022-11-10T20:04:09.957Z,175.20
2022-11-10T20:06:36.588Z,179.10
2022-11-10T20:09:03.500Z,177.00
2022-11-10T20:11:30.038Z,158.70
2022-11-10T20:13:58.725Z,199.10
2022-11-10T20:16:25.263Z,198.80
2022-11-10T20:18:51.802Z,187.40
2022-11-10T20:21:19.876Z,181.20
2022-11-10T20:23:52.455Z,168.30
2022-11-10T20:26:18.904Z,178.50
2022-11-10T20:28:45.949Z,194.10
2022-11-10T20:31:15.378Z,179.40
2022-11-10T20:33:42.945Z,161.30
2022-11-10T20:36:30.282Z,167.40
2022-11-10T20:38:58.430Z,158.60
2022-11-10T20:41:28.465Z,169.00
2022-11-10T20:43:55.820Z,183.10
2022-11-10T20:46:48.320Z,177.20
2022-11-10T20:49:09.243Z,224.60
2022-11-10T20:51:35.808Z,189.10
2022-11-10T20:54:02.452Z,203.30
2022-11-10T20:56:30.151Z,240.80
2022-11-10T20:58:57.685Z,209.60
2022-11-10T21:01:25.311Z,205.60
2022-11-10T21:03:52.194Z,188.00
2022-11-10T21:06:18.737Z,189.70
2022-11-10T21:08:45.919Z,198.60
2022-11-10T21:11:12.531Z,179.40
2022-11-10T21:13:39.072Z,163.00
2022-11-10T21:16:06.532Z,155.10
2022-11-10T21:18:36.137Z,186.50
2022-11-10T21:21:04.622Z,238.40
2022-11-10T21:23:31.261Z,179.90
2022-11-10T21:26:00.375Z,195.30
2022-11-10T21:28:27.412Z,183.40
2022-11-10T21:31:02.817Z,167.70
2022-11-10T21:33:29.253Z,138.60
2022-11-10T21:35:55.669Z,129.60
2022-11-10T21:38:22.275Z,132.50
2022-11-10T21:40:48.816Z,119.00
2022-11-10T21:43:15.355Z,107.30
2022-11-10T21:45:41.895Z,129.50
2022-11-10T21:48:08.850Z,116.70
2022-11-10T21:50:35.381Z,117.80
2022-11-10T21:53:06.571Z,141.30
2022-11-10T21:55:33.071Z,138.50
2022-11-10T21:57:59.643Z,125.60
2022-11-10T22:00:26.148Z,116.50
2022-11-10T22:02:57.846Z,140.00
2022-11-10T22:05:24.357Z,133.60
2022-11-10T22:07:50.821Z,132.90
2022-11-10T22:10:17.430Z,137.10
2022-11-10T22:12:43.965Z,127.50
2022-11-10T22:15:15.160Z,127.90
2022-11-10T22:17:41.651Z,130.30
2022-11-10T22:20:08.285Z,127.10
2022-11-10T22:22:34.831Z,100.20
2022-11-10T22:25:01.367Z,106.90
2022-11-10T22:27:28.014Z,110.00
2022-11-10T22:29:54.550Z,120.60
2022-11-10T22:32:21.092Z,123.10
2022-11-10T22:34:47.630Z,111.30
2022-11-10T22:37:14.179Z,119.70
2022-11-10T22:39:40.715Z,133.00
2022-11-10T22:42:13.030Z,127.60
2022-11-10T22:44:39.648Z,102.20
2022-11-10T22:47:06.087Z,117.90
2022-11-10T22:49:32.615Z,113.90
2022-11-10T22:51:59.254Z,112.80
2022-11-10T22:54:25.797Z,116.40
2022-11-10T22:56:52.320Z,109.40
2022-11-10T22:59:19.797Z,117.20
2022-11-10T23:01:46.575Z,101.60
2022-11-10T23:04:13.899Z,122.60
2022-11-10T23:06:40.471Z,112.10
2022-11-10T23:09:07.491Z,111.90
2022-11-10T23:11:34.033Z,103.30
2022-11-10T23:14:00.809Z,104.30
2022-11-10T23:16:33.562Z,96.60
2022-11-10T23:19:00.331Z,111.30
2022-11-10T23:21:29.777Z,114.70
2022-11-10T23:23:56.353Z,94.40
2022-11-10T23:26:28.118Z,98.30
2022-11-10T23:28:54.612Z,92.60
2022-11-10T23:31:26.518Z,92.90
2022-11-10T23:33:55.253Z,101.60
2022-11-10T23:36:23.920Z,102.50
2022-11-10T23:38:51.459Z,98.30
2022-11-10T23:41:20.315Z,103.30
2022-11-10T23:43:47.414Z,95.20
2022-11-10T23:46:14.368Z,100.30
2022-11-10T23:48:41.502Z,102.70
2022-11-10T23:51:11.247Z,100.00
2022-11-10T23:53:38.588Z,106.80
2022-11-10T23:56:09.329Z,102.00
2022-11-10T23:58:36.077Z,105.30
